ETD1367 VGHS-OMAA
Flight info
| Callsign | ETD1367 |
|---|---|
| Flight time | 4h 27m |
| Altitude | 30000 |
| Route | IKOGU1C IKOGU A462 CEA A791 ASOPO/N0495F320 A791 BPL L639 RASKI N881 KIPOL L444 TOLDA M628 TULBU P558 SODEX N563 NOBTO NOBTO7C |
| Aircraft | A346/H-SDE3FGHIRWY/L |
Departure
| Time | 2026-04-22 22:37 |
|---|---|
| Airport | Hazrat Shahjalal International Airport (VGHS) |
Arrival
| Time | 2026-04-23 03:04 |
|---|---|
| Airport | Zayed International Airport (OMAA) |
| Time | Latitude | Longitude | Altitude | Speed | Heading |
|---|---|---|---|---|---|
| 2026-04-22 21:48 | 23.84674 | 90.40462 | 43 ft | 0 kts | 53° |
| 2026-04-22 22:10 | 23.84664 | 90.40446 | 44 ft | 4 kts | 59° |
| 2026-04-22 22:11 | 23.84651 | 90.40423 | 42 ft | 4 kts | 46° |
| 2026-04-22 22:11 | 23.84639 | 90.40416 | 41 ft | 4 kts | 15° |
| 2026-04-22 22:11 | 23.84617 | 90.40414 | 41 ft | 4 kts | 346° |
| 2026-04-22 22:11 | 23.84596 | 90.40425 | 41 ft | 4 kts | 324° |
| 2026-04-22 22:12 | 23.84581 | 90.40437 | 42 ft | 0 kts | 325° |
| 2026-04-22 22:15 | 23.84582 | 90.40437 | 43 ft | 1 kts | 325° |
| 2026-04-22 22:15 | 23.84589 | 90.40431 | 43 ft | 0 kts | 325° |
| 2026-04-22 22:28 | 23.84596 | 90.40426 | 43 ft | 3 kts | 325° |
| 2026-04-22 22:28 | 23.84622 | 90.40407 | 44 ft | 6 kts | 325° |
| 2026-04-22 22:28 | 23.84664 | 90.40375 | 44 ft | 8 kts | 325° |
| 2026-04-22 22:28 | 23.84699 | 90.40344 | 44 ft | 2 kts | 283° |
| 2026-04-22 22:29 | 23.84686 | 90.40308 | 42 ft | 7 kts | 235° |
| 2026-04-22 22:29 | 23.84666 | 90.40276 | 44 ft | 3 kts | 234° |
| 2026-04-22 22:29 | 23.84659 | 90.40266 | 43 ft | 0 kts | 234° |
| 2026-04-22 22:29 | 23.84648 | 90.40248 | 44 ft | 6 kts | 234° |
| 2026-04-22 22:30 | 23.84645 | 90.40214 | 44 ft | 7 kts | 299° |
| 2026-04-22 22:30 | 23.84703 | 90.40154 | 44 ft | 14 kts | 322° |
| 2026-04-22 22:30 | 23.84785 | 90.40087 | 44 ft | 15 kts | 323° |
| 2026-04-22 22:30 | 23.84877 | 90.40013 | 44 ft | 17 kts | 325° |
| 2026-04-22 22:31 | 23.84983 | 90.39932 | 44 ft | 20 kts | 324° |
| 2026-04-22 22:31 | 23.85100 | 90.39840 | 44 ft | 22 kts | 323° |
| 2026-04-22 22:31 | 23.85221 | 90.39741 | 43 ft | 16 kts | 323° |
| 2026-04-22 22:31 | 23.85319 | 90.39662 | 44 ft | 19 kts | 325° |
| 2026-04-22 22:32 | 23.85432 | 90.39576 | 44 ft | 21 kts | 324° |
| 2026-04-22 22:32 | 23.85554 | 90.39479 | 43 ft | 23 kts | 323° |
| 2026-04-22 22:32 | 23.85659 | 90.39394 | 44 ft | 8 kts | 323° |
| 2026-04-22 22:32 | 23.85710 | 90.39353 | 44 ft | 10 kts | 323° |
| 2026-04-22 22:33 | 23.85764 | 90.39309 | 44 ft | 6 kts | 321° |
| 2026-04-22 22:33 | 23.85769 | 90.39299 | 44 ft | 3 kts | 280° |
| 2026-04-22 22:33 | 23.85752 | 90.39249 | 41 ft | 12 kts | 237° |
| 2026-04-22 22:33 | 23.85705 | 90.39176 | 44 ft | 11 kts | 233° |
| 2026-04-22 22:34 | 23.85675 | 90.39132 | 44 ft | 10 kts | 233° |
| 2026-04-22 22:34 | 23.85635 | 90.39073 | 44 ft | 9 kts | 233° |
| 2026-04-22 22:34 | 23.85596 | 90.39015 | 44 ft | 11 kts | 233° |
| 2026-04-22 22:34 | 23.85547 | 90.38941 | 45 ft | 13 kts | 233° |
| 2026-04-22 22:35 | 23.85512 | 90.38896 | 45 ft | 6 kts | 228° |
| 2026-04-22 22:35 | 23.85477 | 90.38882 | 46 ft | 6 kts | 168° |
| 2026-04-22 22:35 | 23.85431 | 90.38910 | 46 ft | 0 kts | 144° |
| 2026-04-22 22:35 | 23.85430 | 90.38910 | 46 ft | 1 kts | 144° |
| 2026-04-22 22:36 | 23.85316 | 90.39001 | 46 ft | 49 kts | 144° |
| 2026-04-22 22:36 | 23.84871 | 90.39356 | 48 ft | 107 kts | 144° |
| 2026-04-22 22:36 | 23.84121 | 90.39955 | 47 ft | 156 kts | 144° |
| 2026-04-22 22:36 | 23.83133 | 90.40733 | 120 ft | 187 kts | 143° |
| 2026-04-22 22:37 | 23.82080 | 90.41463 | 908 ft | 172 kts | 161° |
| 2026-04-22 22:37 | 23.80931 | 90.41548 | 1586 ft | 164 kts | 197° |
| 2026-04-22 22:37 | 23.80011 | 90.40849 | 2110 ft | 162 kts | 228° |
| 2026-04-22 22:37 | 23.79358 | 90.39842 | 2516 ft | 163 kts | 230° |
| 2026-04-22 22:38 | 23.78606 | 90.38880 | 2825 ft | 168 kts | 223° |
| 2026-04-22 22:38 | 23.77689 | 90.38064 | 3120 ft | 173 kts | 210° |
| 2026-04-22 22:38 | 23.76544 | 90.37530 | 3294 ft | 186 kts | 198° |
| 2026-04-22 22:38 | 23.75269 | 90.37051 | 3497 ft | 203 kts | 202° |
| 2026-04-22 22:39 | 23.73898 | 90.36404 | 3644 ft | 226 kts | 207° |
| 2026-04-22 22:39 | 23.72435 | 90.35590 | 3908 ft | 244 kts | 208° |
| 2026-04-22 22:39 | 23.70917 | 90.34661 | 4311 ft | 255 kts | 218° |
| 2026-04-22 22:39 | 23.69670 | 90.33251 | 4745 ft | 264 kts | 237° |
| 2026-04-22 22:40 | 23.68680 | 90.31527 | 5277 ft | 271 kts | 238° |
| 2026-04-22 22:40 | 23.67622 | 90.29817 | 5689 ft | 271 kts | 236° |
| 2026-04-22 22:40 | 23.66532 | 90.28141 | 5766 ft | 271 kts | 236° |
| 2026-04-22 22:40 | 23.65432 | 90.26471 | 5902 ft | 279 kts | 236° |
| 2026-04-22 22:41 | 23.64298 | 90.24754 | 6646 ft | 276 kts | 236° |
| 2026-04-22 22:41 | 23.63164 | 90.23040 | 7434 ft | 274 kts | 237° |
| 2026-04-22 22:41 | 23.62076 | 90.21324 | 8143 ft | 275 kts | 240° |
| 2026-04-22 22:41 | 23.61081 | 90.19527 | 8834 ft | 277 kts | 242° |
| 2026-04-22 22:42 | 23.60098 | 90.17705 | 9547 ft | 279 kts | 243° |
| 2026-04-22 22:42 | 23.59124 | 90.15898 | 10184 ft | 283 kts | 243° |
| 2026-04-22 22:42 | 23.58105 | 90.14002 | 10543 ft | 298 kts | 243° |
| 2026-04-22 22:42 | 23.57024 | 90.11994 | 10840 ft | 314 kts | 243° |
| 2026-04-22 22:43 | 23.55884 | 90.09885 | 11122 ft | 331 kts | 243° |
| 2026-04-22 22:43 | 23.54684 | 90.07667 | 11420 ft | 347 kts | 242° |
| 2026-04-22 22:43 | 23.53424 | 90.05342 | 11704 ft | 363 kts | 242° |
| 2026-04-22 22:43 | 23.52119 | 90.02939 | 12216 ft | 371 kts | 242° |
| 2026-04-22 22:44 | 23.50800 | 90.00516 | 12979 ft | 372 kts | 243° |
| 2026-04-22 22:44 | 23.49477 | 89.98085 | 13744 ft | 374 kts | 243° |
| 2026-04-22 22:44 | 23.48150 | 89.95635 | 14381 ft | 376 kts | 242° |
| 2026-04-22 22:44 | 23.46813 | 89.93169 | 14982 ft | 380 kts | 242° |
| 2026-04-22 22:45 | 23.45457 | 89.90672 | 15566 ft | 384 kts | 242° |
| 2026-04-22 22:45 | 23.44087 | 89.88152 | 16140 ft | 388 kts | 242° |
| 2026-04-22 22:45 | 23.42797 | 89.85556 | 16717 ft | 390 kts | 246° |
| 2026-04-22 22:45 | 23.41746 | 89.82821 | 17285 ft | 393 kts | 251° |
| 2026-04-22 22:46 | 23.40947 | 89.79962 | 17840 ft | 395 kts | 257° |
| 2026-04-22 22:46 | 23.40310 | 89.77034 | 18329 ft | 399 kts | 258° |
| 2026-04-22 22:46 | 23.39694 | 89.74067 | 18803 ft | 402 kts | 258° |
| 2026-04-22 22:46 | 23.39079 | 89.71095 | 19306 ft | 403 kts | 258° |
| 2026-04-22 22:47 | 23.38420 | 89.68119 | 19838 ft | 405 kts | 254° |
| 2026-04-22 22:47 | 23.37490 | 89.65214 | 20346 ft | 407 kts | 249° |
| 2026-04-22 22:47 | 23.36267 | 89.62425 | 20854 ft | 410 kts | 243° |
| 2026-04-22 22:47 | 23.34782 | 89.59759 | 21353 ft | 412 kts | 239° |
| 2026-04-22 22:48 | 23.33223 | 89.57133 | 21849 ft | 414 kts | 239° |
| 2026-04-22 22:48 | 23.31643 | 89.54500 | 22328 ft | 416 kts | 238° |
| 2026-04-22 22:48 | 23.30058 | 89.51861 | 22801 ft | 418 kts | 238° |
| 2026-04-22 22:48 | 23.28463 | 89.49204 | 23267 ft | 420 kts | 238° |
| 2026-04-22 22:49 | 23.26862 | 89.46537 | 23654 ft | 422 kts | 239° |
| 2026-04-22 22:49 | 23.25256 | 89.43860 | 24036 ft | 423 kts | 239° |
| 2026-04-22 22:49 | 23.23644 | 89.41173 | 24443 ft | 424 kts | 239° |
| 2026-04-22 22:49 | 23.22046 | 89.38509 | 24822 ft | 426 kts | 239° |
| 2026-04-22 22:50 | 23.20425 | 89.35808 | 25210 ft | 427 kts | 239° |
| 2026-04-22 22:50 | 23.18798 | 89.33099 | 25599 ft | 429 kts | 239° |
| 2026-04-22 22:50 | 23.17163 | 89.30378 | 25987 ft | 430 kts | 239° |
| 2026-04-22 22:50 | 23.15523 | 89.27649 | 26368 ft | 431 kts | 238° |
| 2026-04-22 22:51 | 23.13875 | 89.24908 | 26755 ft | 433 kts | 238° |
| 2026-04-22 22:51 | 23.12224 | 89.22164 | 27125 ft | 435 kts | 238° |
| 2026-04-22 22:51 | 23.10563 | 89.19405 | 27503 ft | 436 kts | 238° |
| 2026-04-22 22:51 | 23.08905 | 89.16652 | 27964 ft | 435 kts | 238° |
| 2026-04-22 22:52 | 23.07251 | 89.13908 | 28523 ft | 432 kts | 238° |
| 2026-04-22 22:52 | 23.05600 | 89.11169 | 28983 ft | 432 kts | 238° |
| 2026-04-22 22:52 | 23.03949 | 89.08432 | 29354 ft | 434 kts | 238° |
| 2026-04-22 22:52 | 23.02292 | 89.05685 | 29705 ft | 435 kts | 238° |
| 2026-04-22 22:53 | 23.00628 | 89.02929 | 29723 ft | 436 kts | 238° |
| 2026-04-22 22:53 | 22.97299 | 88.97417 | 29738 ft | 436 kts | 238° |
| 2026-04-22 22:54 | 22.93965 | 88.91905 | 29737 ft | 436 kts | 238° |
| 2026-04-22 22:54 | 22.90762 | 88.86309 | 29742 ft | 436 kts | 240° |
| 2026-04-22 22:55 | 22.87626 | 88.80667 | 29735 ft | 436 kts | 240° |
| 2026-04-22 22:55 | 22.82918 | 88.72197 | 29742 ft | 436 kts | 240° |
| 2026-04-22 22:56 | 22.79778 | 88.66553 | 29747 ft | 437 kts | 240° |
| 2026-04-22 22:56 | 22.76639 | 88.60912 | 29754 ft | 436 kts | 240° |
| 2026-04-22 22:57 | 22.73519 | 88.55313 | 29761 ft | 437 kts | 240° |
| 2026-04-22 22:57 | 22.70488 | 88.49611 | 29759 ft | 436 kts | 245° |
| 2026-04-22 22:58 | 22.68629 | 88.43367 | 29760 ft | 437 kts | 258° |
| 2026-04-22 22:58 | 22.68225 | 88.36782 | 29769 ft | 440 kts | 270° |
| 2026-04-22 22:59 | 22.68620 | 88.30157 | 29758 ft | 440 kts | 271° |
| 2026-04-22 22:59 | 22.69054 | 88.23520 | 29750 ft | 440 kts | 271° |
| 2026-04-22 23:00 | 22.69489 | 88.16896 | 29746 ft | 441 kts | 271° |
| 2026-04-22 23:00 | 22.69922 | 88.10264 | 29735 ft | 440 kts | 271° |
| 2026-04-22 23:01 | 22.70350 | 88.03644 | 29729 ft | 440 kts | 271° |
| 2026-04-22 23:01 | 22.70774 | 87.97018 | 29733 ft | 440 kts | 271° |
| 2026-04-22 23:02 | 22.71198 | 87.90399 | 29727 ft | 440 kts | 271° |
| 2026-04-22 23:02 | 22.71619 | 87.83775 | 29729 ft | 440 kts | 271° |
| 2026-04-22 23:03 | 22.72038 | 87.77148 | 29728 ft | 440 kts | 271° |
| 2026-04-22 23:03 | 22.72454 | 87.70528 | 29726 ft | 440 kts | 271° |
| 2026-04-22 23:04 | 22.72867 | 87.63917 | 29723 ft | 439 kts | 271° |
| 2026-04-22 23:04 | 22.73277 | 87.57300 | 29734 ft | 439 kts | 271° |
| 2026-04-22 23:05 | 22.73684 | 87.50688 | 29730 ft | 439 kts | 271° |
| 2026-04-22 23:05 | 22.74088 | 87.44074 | 29734 ft | 439 kts | 271° |
| 2026-04-22 23:06 | 22.74489 | 87.37471 | 29727 ft | 439 kts | 271° |
| 2026-04-22 23:06 | 22.74888 | 87.30858 | 29728 ft | 439 kts | 271° |
| 2026-04-22 23:07 | 22.75284 | 87.24242 | 29723 ft | 439 kts | 271° |
| 2026-04-22 23:07 | 22.75678 | 87.17627 | 29736 ft | 440 kts | 271° |
| 2026-04-22 23:08 | 22.76067 | 87.11045 | 29735 ft | 440 kts | 271° |
| 2026-04-22 23:08 | 22.76456 | 87.04415 | 29730 ft | 440 kts | 271° |
| 2026-04-22 23:09 | 22.76843 | 86.97782 | 29733 ft | 440 kts | 271° |
| 2026-04-22 23:09 | 22.77226 | 86.91150 | 29738 ft | 440 kts | 271° |
| 2026-04-22 23:10 | 22.77606 | 86.84535 | 29738 ft | 439 kts | 271° |
| 2026-04-22 23:10 | 22.77984 | 86.77919 | 29741 ft | 439 kts | 271° |
| 2026-04-22 23:11 | 22.78358 | 86.71309 | 29743 ft | 438 kts | 271° |
| 2026-04-22 23:11 | 22.78729 | 86.64711 | 29746 ft | 438 kts | 271° |
| 2026-04-22 23:12 | 22.79098 | 86.58110 | 29745 ft | 438 kts | 271° |
| 2026-04-22 23:12 | 22.79463 | 86.51515 | 29738 ft | 437 kts | 271° |
| 2026-04-22 23:13 | 22.79826 | 86.44925 | 29742 ft | 437 kts | 271° |
| 2026-04-22 23:13 | 22.80185 | 86.38342 | 29743 ft | 437 kts | 271° |
| 2026-04-22 23:14 | 22.80543 | 86.31762 | 29746 ft | 436 kts | 271° |
| 2026-04-22 23:14 | 22.80897 | 86.25183 | 29746 ft | 436 kts | 271° |
| 2026-04-22 23:15 | 22.81245 | 86.18663 | 29748 ft | 436 kts | 271° |
| 2026-04-22 23:15 | 22.81708 | 86.11936 | 29738 ft | 450 kts | 274° |
| 2026-04-22 23:16 | 22.82287 | 86.05200 | 29741 ft | 452 kts | 274° |
| 2026-04-22 23:16 | 22.82863 | 85.98380 | 29747 ft | 452 kts | 274° |
| 2026-04-22 23:17 | 22.83433 | 85.91567 | 29753 ft | 453 kts | 274° |
| 2026-04-22 23:17 | 22.83992 | 85.84759 | 29756 ft | 453 kts | 274° |
| 2026-04-22 23:18 | 22.84545 | 85.77951 | 29758 ft | 453 kts | 274° |
| 2026-04-22 23:18 | 22.85096 | 85.71128 | 29760 ft | 454 kts | 274° |
| 2026-04-22 23:19 | 22.85643 | 85.64292 | 29764 ft | 455 kts | 274° |
| 2026-04-22 23:19 | 22.86189 | 85.57454 | 29767 ft | 455 kts | 274° |
| 2026-04-22 23:20 | 22.86732 | 85.50603 | 29771 ft | 455 kts | 274° |
| 2026-04-22 23:20 | 22.87273 | 85.43751 | 29780 ft | 456 kts | 274° |
| 2026-04-22 23:21 | 22.87810 | 85.36895 | 29783 ft | 456 kts | 274° |
| 2026-04-22 23:21 | 22.88346 | 85.30031 | 29782 ft | 456 kts | 274° |
| 2026-04-22 23:22 | 22.88790 | 85.24320 | 29782 ft | 457 kts | 274° |
| 2026-04-22 23:22 | 22.89321 | 85.17440 | 29789 ft | 457 kts | 274° |
| 2026-04-22 23:23 | 22.89851 | 85.10552 | 29789 ft | 458 kts | 274° |
| 2026-04-22 23:23 | 22.90383 | 85.03663 | 29791 ft | 458 kts | 274° |
| 2026-04-22 23:24 | 22.90915 | 84.96755 | 29796 ft | 459 kts | 274° |
| 2026-04-22 23:24 | 22.91444 | 84.89848 | 29797 ft | 459 kts | 274° |
| 2026-04-22 23:25 | 22.91970 | 84.82929 | 29797 ft | 459 kts | 274° |
| 2026-04-22 23:25 | 22.92494 | 84.76010 | 29798 ft | 460 kts | 274° |
| 2026-04-22 23:26 | 22.93016 | 84.69086 | 29801 ft | 460 kts | 274° |
| 2026-04-22 23:26 | 22.93534 | 84.62157 | 29802 ft | 460 kts | 274° |
| 2026-04-22 23:27 | 22.94050 | 84.55232 | 29804 ft | 460 kts | 274° |
| 2026-04-22 23:27 | 22.94563 | 84.48299 | 29803 ft | 460 kts | 274° |
| 2026-04-22 23:28 | 22.95072 | 84.41363 | 29807 ft | 460 kts | 274° |
| 2026-04-22 23:28 | 22.95579 | 84.34424 | 29811 ft | 461 kts | 274° |
| 2026-04-22 23:29 | 22.96085 | 84.27477 | 29812 ft | 461 kts | 274° |
| 2026-04-22 23:29 | 22.96588 | 84.20531 | 29808 ft | 461 kts | 274° |
| 2026-04-22 23:30 | 22.97084 | 84.13625 | 29810 ft | 461 kts | 274° |
| 2026-04-22 23:30 | 22.97501 | 84.06617 | 29815 ft | 462 kts | 273° |
| 2026-04-22 23:31 | 22.97863 | 83.99697 | 29809 ft | 462 kts | 273° |
| 2026-04-22 23:31 | 22.98231 | 83.92724 | 29811 ft | 462 kts | 273° |
| 2026-04-22 23:32 | 22.98602 | 83.85739 | 29811 ft | 463 kts | 273° |
| 2026-04-22 23:32 | 22.98971 | 83.78755 | 29814 ft | 463 kts | 273° |
| 2026-04-22 23:33 | 22.99339 | 83.71763 | 29814 ft | 463 kts | 273° |
| 2026-04-22 23:33 | 22.99704 | 83.64776 | 29812 ft | 463 kts | 273° |
| 2026-04-22 23:34 | 23.00065 | 83.57781 | 29812 ft | 463 kts | 273° |
| 2026-04-22 23:34 | 23.00424 | 83.50779 | 29815 ft | 464 kts | 273° |
| 2026-04-22 23:35 | 23.00780 | 83.43774 | 29813 ft | 464 kts | 273° |
| 2026-04-22 23:35 | 23.01134 | 83.36762 | 29811 ft | 465 kts | 273° |
| 2026-04-22 23:36 | 23.01485 | 83.29737 | 29811 ft | 465 kts | 273° |
| 2026-04-22 23:36 | 23.01833 | 83.22715 | 29810 ft | 465 kts | 273° |
| 2026-04-22 23:37 | 23.02176 | 83.15728 | 29804 ft | 466 kts | 273° |
| 2026-04-22 23:37 | 23.02520 | 83.08642 | 29801 ft | 466 kts | 273° |
| 2026-04-22 23:38 | 23.02857 | 83.01646 | 29801 ft | 466 kts | 273° |
| 2026-04-22 23:38 | 23.03195 | 82.94581 | 29797 ft | 467 kts | 272° |
| 2026-04-22 23:39 | 23.03529 | 82.87527 | 29796 ft | 467 kts | 272° |
| 2026-04-22 23:39 | 23.03860 | 82.80464 | 29795 ft | 467 kts | 272° |
| 2026-04-22 23:40 | 23.04187 | 82.73397 | 29796 ft | 468 kts | 272° |
| 2026-04-22 23:40 | 23.04512 | 82.66334 | 29795 ft | 468 kts | 272° |
| 2026-04-22 23:41 | 23.04834 | 82.59255 | 29800 ft | 469 kts | 272° |
| 2026-04-22 23:41 | 23.05154 | 82.52177 | 29801 ft | 469 kts | 272° |
| 2026-04-22 23:42 | 23.05470 | 82.45092 | 29799 ft | 469 kts | 272° |
| 2026-04-22 23:42 | 23.05785 | 82.37992 | 29808 ft | 469 kts | 272° |
| 2026-04-22 23:43 | 23.06096 | 82.30895 | 29808 ft | 470 kts | 272° |
| 2026-04-22 23:43 | 23.06402 | 82.23847 | 29803 ft | 470 kts | 272° |
| 2026-04-22 23:44 | 23.06707 | 82.16730 | 29814 ft | 471 kts | 272° |
| 2026-04-22 23:44 | 23.07113 | 82.09622 | 29811 ft | 471 kts | 274° |
| 2026-04-22 23:45 | 23.07567 | 82.02503 | 29811 ft | 472 kts | 274° |
| 2026-04-22 23:45 | 23.08012 | 81.95383 | 29801 ft | 472 kts | 274° |
| 2026-04-22 23:46 | 23.08449 | 81.88253 | 29817 ft | 472 kts | 273° |
| 2026-04-22 23:46 | 23.08882 | 81.81118 | 29817 ft | 473 kts | 273° |
| 2026-04-22 23:47 | 23.09311 | 81.73975 | 29819 ft | 473 kts | 273° |
| 2026-04-22 23:47 | 23.09737 | 81.66830 | 29812 ft | 473 kts | 273° |
| 2026-04-22 23:48 | 23.10160 | 81.59678 | 29828 ft | 474 kts | 273° |
| 2026-04-22 23:48 | 23.10580 | 81.52525 | 29828 ft | 474 kts | 273° |
| 2026-04-22 23:49 | 23.10996 | 81.45365 | 29822 ft | 474 kts | 273° |
| 2026-04-22 23:49 | 23.11411 | 81.38201 | 29824 ft | 475 kts | 273° |
| 2026-04-22 23:50 | 23.11826 | 81.30963 | 30162 ft | 483 kts | 273° |
| 2026-04-22 23:50 | 23.12036 | 81.27325 | 30737 ft | 478 kts | 272° |
| 2026-04-22 23:50 | 23.12244 | 81.23750 | 31376 ft | 470 kts | 272° |
| 2026-04-22 23:51 | 23.12446 | 81.20224 | 31745 ft | 464 kts | 272° |
| 2026-04-22 23:51 | 23.12639 | 81.16779 | 31816 ft | 461 kts | 272° |
| 2026-04-22 23:51 | 23.13027 | 81.09769 | 31828 ft | 460 kts | 272° |
| 2026-04-22 23:52 | 23.13408 | 81.02864 | 31829 ft | 460 kts | 272° |
| 2026-04-22 23:52 | 23.13791 | 80.95903 | 31830 ft | 461 kts | 272° |
| 2026-04-22 23:53 | 23.14173 | 80.88924 | 31830 ft | 462 kts | 272° |
| 2026-04-22 23:53 | 23.14553 | 80.81939 | 31829 ft | 463 kts | 272° |
| 2026-04-22 23:54 | 23.14929 | 80.74947 | 31827 ft | 463 kts | 272° |
| 2026-04-22 23:54 | 23.15311 | 80.67943 | 31828 ft | 464 kts | 272° |
| 2026-04-22 23:55 | 23.15693 | 80.60927 | 31826 ft | 464 kts | 272° |
| 2026-04-22 23:55 | 23.16073 | 80.53911 | 31830 ft | 465 kts | 272° |
| 2026-04-22 23:56 | 23.16450 | 80.46883 | 31828 ft | 465 kts | 272° |
| 2026-04-22 23:56 | 23.16825 | 80.39838 | 31821 ft | 466 kts | 272° |
| 2026-04-22 23:57 | 23.17196 | 80.32794 | 31831 ft | 466 kts | 272° |
| 2026-04-22 23:57 | 23.17565 | 80.25744 | 31827 ft | 467 kts | 272° |
| 2026-04-22 23:58 | 23.17933 | 80.18660 | 31825 ft | 467 kts | 272° |
| 2026-04-22 23:58 | 23.18297 | 80.11588 | 31823 ft | 468 kts | 272° |
| 2026-04-22 23:59 | 23.18653 | 80.04514 | 31820 ft | 468 kts | 271° |
| 2026-04-22 23:59 | 23.18964 | 79.97425 | 31828 ft | 469 kts | 271° |
| 2026-04-23 00:00 | 23.19369 | 79.87979 | 31825 ft | 470 kts | 271° |
| 2026-04-23 00:01 | 23.19725 | 79.79670 | 31831 ft | 470 kts | 271° |
| 2026-04-23 00:01 | 23.20028 | 79.72557 | 31827 ft | 471 kts | 271° |
| 2026-04-23 00:02 | 23.20327 | 79.65486 | 31832 ft | 471 kts | 271° |
| 2026-04-23 00:02 | 23.20626 | 79.58300 | 31836 ft | 472 kts | 271° |
| 2026-04-23 00:03 | 23.20827 | 79.51201 | 31828 ft | 472 kts | 270° |
| 2026-04-23 00:03 | 23.20940 | 79.44038 | 31837 ft | 473 kts | 270° |
| 2026-04-23 00:04 | 23.21057 | 79.36871 | 31834 ft | 474 kts | 270° |
| 2026-04-23 00:04 | 23.21179 | 79.29696 | 31836 ft | 474 kts | 270° |
| 2026-04-23 00:05 | 23.21301 | 79.22504 | 31841 ft | 475 kts | 270° |
| 2026-04-23 00:05 | 23.21421 | 79.15304 | 31833 ft | 476 kts | 270° |
| 2026-04-23 00:06 | 23.21539 | 79.08095 | 31842 ft | 476 kts | 270° |
| 2026-04-23 00:06 | 23.21653 | 79.00878 | 31843 ft | 477 kts | 270° |
| 2026-04-23 00:07 | 23.21764 | 78.93623 | 31835 ft | 477 kts | 270° |
| 2026-04-23 00:07 | 23.21873 | 78.86393 | 31836 ft | 478 kts | 270° |
| 2026-04-23 00:08 | 23.21978 | 78.79151 | 31835 ft | 479 kts | 270° |
| 2026-04-23 00:08 | 23.22147 | 78.71899 | 31833 ft | 479 kts | 272° |
| 2026-04-23 00:09 | 23.22493 | 78.64646 | 31841 ft | 480 kts | 272° |
| 2026-04-23 00:09 | 23.22846 | 78.57391 | 31841 ft | 480 kts | 272° |
| 2026-04-23 00:10 | 23.23136 | 78.51357 | 31845 ft | 480 kts | 272° |
| 2026-04-23 00:10 | 23.23538 | 78.42907 | 31846 ft | 481 kts | 272° |
| 2026-04-23 00:11 | 23.23880 | 78.35633 | 31840 ft | 481 kts | 272° |
| 2026-04-23 00:11 | 23.24219 | 78.28353 | 31849 ft | 481 kts | 272° |
| 2026-04-23 00:12 | 23.24498 | 78.22301 | 31844 ft | 482 kts | 272° |
| 2026-04-23 00:12 | 23.24833 | 78.14962 | 31848 ft | 482 kts | 272° |
| 2026-04-23 00:13 | 23.25161 | 78.07710 | 31848 ft | 482 kts | 272° |
| 2026-04-23 00:13 | 23.25489 | 78.00367 | 31840 ft | 483 kts | 272° |
| 2026-04-23 00:14 | 23.25810 | 77.93111 | 31849 ft | 483 kts | 272° |
| 2026-04-23 00:14 | 23.26131 | 77.85798 | 31849 ft | 483 kts | 272° |
| 2026-04-23 00:15 | 23.26448 | 77.78480 | 31846 ft | 484 kts | 272° |
| 2026-04-23 00:15 | 23.26762 | 77.71158 | 31853 ft | 484 kts | 272° |
| 2026-04-23 00:16 | 23.27073 | 77.63836 | 31847 ft | 484 kts | 272° |
| 2026-04-23 00:16 | 23.27381 | 77.56508 | 31850 ft | 485 kts | 272° |
| 2026-04-23 00:17 | 23.27687 | 77.49165 | 31850 ft | 485 kts | 272° |
| 2026-04-23 00:17 | 23.27989 | 77.41821 | 31849 ft | 485 kts | 272° |
| 2026-04-23 00:18 | 23.28205 | 77.34475 | 31849 ft | 485 kts | 269° |
| 2026-04-23 00:18 | 23.27871 | 77.27139 | 31851 ft | 485 kts | 265° |
| 2026-04-23 00:19 | 23.27347 | 77.19798 | 31851 ft | 486 kts | 265° |
| 2026-04-23 00:19 | 23.26818 | 77.12459 | 31851 ft | 486 kts | 265° |
| 2026-04-23 00:20 | 23.26290 | 77.05117 | 31852 ft | 486 kts | 265° |
| 2026-04-23 00:20 | 23.25760 | 76.97776 | 31852 ft | 486 kts | 265° |
| 2026-04-23 00:21 | 23.25227 | 76.90425 | 31850 ft | 488 kts | 265° |
| 2026-04-23 00:21 | 23.24681 | 76.82950 | 31852 ft | 499 kts | 265° |
| 2026-04-23 00:22 | 23.24126 | 76.75414 | 31855 ft | 499 kts | 265° |
| 2026-04-23 00:22 | 23.23572 | 76.67923 | 31852 ft | 500 kts | 265° |
| 2026-04-23 00:23 | 23.23010 | 76.60373 | 31852 ft | 500 kts | 265° |
| 2026-04-23 00:23 | 23.22446 | 76.52835 | 31851 ft | 500 kts | 265° |
| 2026-04-23 00:24 | 23.21877 | 76.45286 | 31855 ft | 500 kts | 265° |
| 2026-04-23 00:24 | 23.21304 | 76.37734 | 31854 ft | 500 kts | 265° |
| 2026-04-23 00:25 | 23.20728 | 76.30186 | 31853 ft | 500 kts | 265° |
| 2026-04-23 00:25 | 23.20149 | 76.22633 | 31854 ft | 501 kts | 265° |
| 2026-04-23 00:26 | 23.19566 | 76.15074 | 31853 ft | 501 kts | 265° |
| 2026-04-23 00:26 | 23.18979 | 76.07513 | 31854 ft | 501 kts | 265° |
| 2026-04-23 00:27 | 23.18431 | 75.99948 | 31856 ft | 501 kts | 267° |
| 2026-04-23 00:27 | 23.18277 | 75.92357 | 31861 ft | 502 kts | 269° |
| 2026-04-23 00:28 | 23.18188 | 75.84609 | 31859 ft | 502 kts | 269° |
| 2026-04-23 00:28 | 23.18099 | 75.77007 | 31864 ft | 502 kts | 269° |
| 2026-04-23 00:29 | 23.18003 | 75.69404 | 31860 ft | 502 kts | 269° |
| 2026-04-23 00:29 | 23.17902 | 75.61797 | 31860 ft | 502 kts | 269° |
| 2026-04-23 00:30 | 23.17797 | 75.54196 | 31859 ft | 502 kts | 269° |
| 2026-04-23 00:30 | 23.17688 | 75.46585 | 31859 ft | 503 kts | 269° |
| 2026-04-23 00:31 | 23.17576 | 75.38980 | 31860 ft | 502 kts | 269° |
| 2026-04-23 00:31 | 23.17460 | 75.31375 | 31857 ft | 502 kts | 269° |
| 2026-04-23 00:32 | 23.17340 | 75.23766 | 31858 ft | 502 kts | 269° |
| 2026-04-23 00:32 | 23.17217 | 75.16159 | 31859 ft | 502 kts | 269° |
| 2026-04-23 00:33 | 23.17090 | 75.08549 | 31852 ft | 503 kts | 269° |
| 2026-04-23 00:33 | 23.16960 | 75.00944 | 31853 ft | 503 kts | 269° |
| 2026-04-23 00:34 | 23.16826 | 74.93339 | 31850 ft | 502 kts | 269° |
| 2026-04-23 00:34 | 23.16688 | 74.85734 | 31846 ft | 502 kts | 269° |
| 2026-04-23 00:35 | 23.16546 | 74.78132 | 31846 ft | 502 kts | 269° |
| 2026-04-23 00:35 | 23.16402 | 74.70580 | 31840 ft | 502 kts | 269° |
| 2026-04-23 00:36 | 23.16253 | 74.62920 | 31839 ft | 502 kts | 269° |
| 2026-04-23 00:36 | 23.16102 | 74.55371 | 31836 ft | 502 kts | 269° |
| 2026-04-23 00:37 | 23.15947 | 74.47762 | 31836 ft | 502 kts | 269° |
| 2026-04-23 00:37 | 23.15789 | 74.40159 | 31830 ft | 502 kts | 269° |
| 2026-04-23 00:38 | 23.15614 | 74.32561 | 31829 ft | 502 kts | 268° |
| 2026-04-23 00:38 | 23.15269 | 74.24963 | 31833 ft | 503 kts | 267° |
| 2026-04-23 00:39 | 23.14890 | 74.17364 | 31823 ft | 502 kts | 267° |
| 2026-04-23 00:39 | 23.14520 | 74.09775 | 31822 ft | 502 kts | 267° |
| 2026-04-23 00:40 | 23.14154 | 74.02180 | 31820 ft | 502 kts | 267° |
| 2026-04-23 00:40 | 23.13787 | 73.94596 | 31813 ft | 502 kts | 267° |
| 2026-04-23 00:41 | 23.13418 | 73.87011 | 31811 ft | 502 kts | 267° |
| 2026-04-23 00:41 | 23.13045 | 73.79422 | 31816 ft | 502 kts | 267° |
| 2026-04-23 00:42 | 23.12669 | 73.71839 | 31817 ft | 502 kts | 267° |
| 2026-04-23 00:42 | 23.12288 | 73.64253 | 31815 ft | 502 kts | 267° |
| 2026-04-23 00:43 | 23.11907 | 73.56715 | 31814 ft | 502 kts | 267° |
| 2026-04-23 00:43 | 23.11519 | 73.49133 | 31810 ft | 502 kts | 267° |
| 2026-04-23 00:44 | 23.11128 | 73.41555 | 31810 ft | 502 kts | 267° |
| 2026-04-23 00:44 | 23.10734 | 73.33973 | 31808 ft | 502 kts | 267° |
| 2026-04-23 00:45 | 23.10336 | 73.26396 | 31807 ft | 501 kts | 267° |
| 2026-04-23 00:45 | 23.09934 | 73.18816 | 31805 ft | 501 kts | 267° |
| 2026-04-23 00:46 | 23.09529 | 73.11247 | 31805 ft | 501 kts | 267° |
| 2026-04-23 00:46 | 23.09122 | 73.03683 | 31804 ft | 501 kts | 267° |
| 2026-04-23 00:47 | 23.08710 | 72.96114 | 31805 ft | 501 kts | 267° |
| 2026-04-23 00:47 | 23.08296 | 72.88552 | 31807 ft | 501 kts | 267° |
| 2026-04-23 00:48 | 23.07879 | 72.81000 | 31814 ft | 500 kts | 267° |
| 2026-04-23 00:48 | 23.07459 | 72.73452 | 31818 ft | 500 kts | 266° |
| 2026-04-23 00:49 | 23.07033 | 72.65905 | 31818 ft | 500 kts | 266° |
| 2026-04-23 00:49 | 23.06244 | 72.58402 | 31819 ft | 499 kts | 262° |
| 2026-04-23 00:50 | 23.05198 | 72.50925 | 31817 ft | 499 kts | 261° |
| 2026-04-23 00:50 | 23.04145 | 72.43466 | 31811 ft | 499 kts | 261° |
| 2026-04-23 00:51 | 23.03094 | 72.36018 | 31809 ft | 498 kts | 261° |
| 2026-04-23 00:51 | 23.02042 | 72.28570 | 31803 ft | 498 kts | 261° |
| 2026-04-23 00:52 | 23.00987 | 72.21120 | 31800 ft | 498 kts | 261° |
| 2026-04-23 00:52 | 22.99930 | 72.13684 | 31800 ft | 498 kts | 261° |
| 2026-04-23 00:53 | 22.98877 | 72.06298 | 31801 ft | 497 kts | 261° |
| 2026-04-23 00:53 | 22.97807 | 71.98822 | 31804 ft | 497 kts | 261° |
| 2026-04-23 00:54 | 22.96749 | 71.91448 | 31805 ft | 497 kts | 261° |
| 2026-04-23 00:54 | 22.95680 | 71.84033 | 31806 ft | 496 kts | 261° |
| 2026-04-23 00:55 | 22.94610 | 71.76624 | 31805 ft | 496 kts | 261° |
| 2026-04-23 00:55 | 22.93537 | 71.69227 | 31807 ft | 496 kts | 261° |
| 2026-04-23 00:56 | 22.92460 | 71.61821 | 31807 ft | 495 kts | 261° |
| 2026-04-23 00:56 | 22.91382 | 71.54435 | 31812 ft | 495 kts | 261° |
| 2026-04-23 00:57 | 22.90299 | 71.47042 | 31816 ft | 495 kts | 261° |
| 2026-04-23 00:57 | 22.89213 | 71.39652 | 31816 ft | 495 kts | 261° |
| 2026-04-23 00:58 | 22.88308 | 71.33509 | 31817 ft | 496 kts | 261° |
| 2026-04-23 00:58 | 22.87216 | 71.26121 | 31819 ft | 496 kts | 261° |
| 2026-04-23 00:59 | 22.86119 | 71.18723 | 31819 ft | 496 kts | 261° |
| 2026-04-23 00:59 | 22.85021 | 71.11332 | 31823 ft | 496 kts | 261° |
| 2026-04-23 01:00 | 22.83918 | 71.03939 | 31823 ft | 496 kts | 261° |
| 2026-04-23 01:00 | 22.82632 | 70.95342 | 31822 ft | 496 kts | 261° |
| 2026-04-23 01:01 | 22.81754 | 70.89150 | 31829 ft | 495 kts | 263° |
| 2026-04-23 01:01 | 22.81226 | 70.81697 | 31838 ft | 495 kts | 269° |
| 2026-04-23 01:02 | 22.81373 | 70.74273 | 31833 ft | 495 kts | 274° |
| 2026-04-23 01:02 | 22.81846 | 70.66829 | 31831 ft | 494 kts | 274° |
| 2026-04-23 01:03 | 22.82328 | 70.59383 | 31833 ft | 494 kts | 274° |
| 2026-04-23 01:03 | 22.82800 | 70.51939 | 31832 ft | 494 kts | 274° |
| 2026-04-23 01:04 | 22.83264 | 70.44508 | 31836 ft | 493 kts | 274° |
| 2026-04-23 01:04 | 22.83953 | 70.33359 | 31834 ft | 493 kts | 274° |
| 2026-04-23 01:05 | 22.84408 | 70.25926 | 31838 ft | 493 kts | 274° |
| 2026-04-23 01:05 | 22.84859 | 70.18504 | 31835 ft | 493 kts | 274° |
| 2026-04-23 01:06 | 22.85306 | 70.11081 | 31837 ft | 492 kts | 274° |
| 2026-04-23 01:06 | 22.85750 | 70.03668 | 31838 ft | 492 kts | 273° |
| 2026-04-23 01:07 | 22.86190 | 69.96252 | 31844 ft | 492 kts | 273° |
| 2026-04-23 01:07 | 22.86627 | 69.88847 | 31844 ft | 491 kts | 273° |
| 2026-04-23 01:08 | 22.87061 | 69.81443 | 31848 ft | 491 kts | 273° |
| 2026-04-23 01:08 | 22.87491 | 69.74037 | 31845 ft | 491 kts | 273° |
| 2026-04-23 01:09 | 22.87930 | 69.66644 | 31847 ft | 491 kts | 274° |
| 2026-04-23 01:09 | 22.88406 | 69.59253 | 31848 ft | 490 kts | 274° |
| 2026-04-23 01:10 | 22.88883 | 69.51859 | 31846 ft | 490 kts | 274° |
| 2026-04-23 01:10 | 22.89355 | 69.44465 | 31848 ft | 490 kts | 274° |
| 2026-04-23 01:11 | 22.89823 | 69.37079 | 31848 ft | 490 kts | 274° |
| 2026-04-23 01:11 | 22.90283 | 69.29743 | 31845 ft | 490 kts | 274° |
| 2026-04-23 01:12 | 22.90745 | 69.22321 | 31847 ft | 489 kts | 274° |
| 2026-04-23 01:12 | 22.91198 | 69.14989 | 31847 ft | 489 kts | 274° |
| 2026-04-23 01:13 | 22.91650 | 69.07619 | 31845 ft | 489 kts | 274° |
| 2026-04-23 01:13 | 22.92099 | 69.00244 | 31849 ft | 489 kts | 273° |
| 2026-04-23 01:14 | 22.92544 | 68.92879 | 31848 ft | 488 kts | 273° |
| 2026-04-23 01:14 | 22.92986 | 68.85509 | 31846 ft | 488 kts | 273° |
| 2026-04-23 01:15 | 22.93423 | 68.78158 | 31849 ft | 488 kts | 273° |
| 2026-04-23 01:15 | 22.93858 | 68.70801 | 31849 ft | 487 kts | 273° |
| 2026-04-23 01:16 | 22.94289 | 68.63449 | 31847 ft | 487 kts | 273° |
| 2026-04-23 01:16 | 22.94717 | 68.56110 | 31848 ft | 487 kts | 273° |
| 2026-04-23 01:17 | 22.95141 | 68.48771 | 31845 ft | 486 kts | 273° |
| 2026-04-23 01:17 | 22.95562 | 68.41434 | 31846 ft | 486 kts | 273° |
| 2026-04-23 01:18 | 22.95775 | 68.34099 | 31850 ft | 486 kts | 270° |
| 2026-04-23 01:18 | 22.95782 | 68.26760 | 31846 ft | 485 kts | 270° |
| 2026-04-23 01:19 | 22.95783 | 68.19425 | 31848 ft | 485 kts | 270° |
| 2026-04-23 01:19 | 22.95783 | 68.12088 | 31847 ft | 485 kts | 270° |
| 2026-04-23 01:20 | 22.95782 | 68.04764 | 31847 ft | 485 kts | 270° |
| 2026-04-23 01:20 | 22.95779 | 67.97433 | 31846 ft | 485 kts | 269° |
| 2026-04-23 01:21 | 22.95772 | 67.90108 | 31845 ft | 485 kts | 269° |
| 2026-04-23 01:21 | 22.95771 | 67.82784 | 31850 ft | 484 kts | 269° |
| 2026-04-23 01:22 | 22.95787 | 67.75461 | 31850 ft | 484 kts | 270° |
| 2026-04-23 01:22 | 22.95802 | 67.68138 | 31850 ft | 484 kts | 270° |
| 2026-04-23 01:23 | 22.95813 | 67.60873 | 31852 ft | 484 kts | 269° |
| 2026-04-23 01:23 | 22.95820 | 67.53504 | 31852 ft | 484 kts | 269° |
| 2026-04-23 01:24 | 22.95825 | 67.46192 | 31849 ft | 484 kts | 269° |
| 2026-04-23 01:24 | 22.95825 | 67.38872 | 31851 ft | 484 kts | 269° |
| 2026-04-23 01:25 | 22.95823 | 67.31568 | 31849 ft | 484 kts | 269° |
| 2026-04-23 01:25 | 22.95817 | 67.24309 | 31853 ft | 483 kts | 269° |
| 2026-04-23 01:26 | 22.95808 | 67.16992 | 31849 ft | 484 kts | 269° |
| 2026-04-23 01:26 | 22.95797 | 67.09682 | 31850 ft | 484 kts | 269° |
| 2026-04-23 01:27 | 22.95783 | 67.02372 | 31850 ft | 484 kts | 269° |
| 2026-04-23 01:27 | 22.95767 | 66.95052 | 31849 ft | 484 kts | 269° |
| 2026-04-23 01:28 | 22.95804 | 66.87732 | 31856 ft | 484 kts | 270° |
| 2026-04-23 01:28 | 22.95851 | 66.80410 | 31849 ft | 485 kts | 270° |
| 2026-04-23 01:29 | 22.95894 | 66.73089 | 31851 ft | 485 kts | 270° |
| 2026-04-23 01:29 | 22.95931 | 66.65754 | 31850 ft | 485 kts | 270° |
| 2026-04-23 01:30 | 22.95964 | 66.58469 | 31851 ft | 485 kts | 270° |
| 2026-04-23 01:30 | 22.95994 | 66.51133 | 31855 ft | 486 kts | 270° |
| 2026-04-23 01:31 | 22.96021 | 66.43792 | 31849 ft | 486 kts | 270° |
| 2026-04-23 01:31 | 22.96044 | 66.36446 | 31851 ft | 486 kts | 270° |
| 2026-04-23 01:32 | 22.96063 | 66.29102 | 31856 ft | 486 kts | 270° |
| 2026-04-23 01:32 | 22.96080 | 66.21746 | 31850 ft | 486 kts | 270° |
| 2026-04-23 01:33 | 22.96093 | 66.14396 | 31849 ft | 487 kts | 270° |
| 2026-04-23 01:33 | 22.96103 | 66.07041 | 31855 ft | 487 kts | 270° |
| 2026-04-23 01:34 | 22.96109 | 65.99677 | 31851 ft | 487 kts | 270° |
| 2026-04-23 01:34 | 22.96112 | 65.92316 | 31849 ft | 487 kts | 270° |
| 2026-04-23 01:35 | 22.96112 | 65.84952 | 31849 ft | 487 kts | 270° |
| 2026-04-23 01:35 | 22.96108 | 65.77587 | 31848 ft | 487 kts | 270° |
| 2026-04-23 01:36 | 22.96101 | 65.70212 | 31849 ft | 488 kts | 270° |
| 2026-04-23 01:36 | 22.96091 | 65.62846 | 31849 ft | 488 kts | 270° |
| 2026-04-23 01:37 | 22.96076 | 65.55477 | 31850 ft | 488 kts | 270° |
| 2026-04-23 01:37 | 22.96059 | 65.48104 | 31849 ft | 488 kts | 270° |
| 2026-04-23 01:38 | 22.96038 | 65.40731 | 31851 ft | 488 kts | 270° |
| 2026-04-23 01:38 | 22.96014 | 65.33359 | 31852 ft | 487 kts | 270° |
| 2026-04-23 01:39 | 22.95987 | 65.25991 | 31849 ft | 487 kts | 270° |
| 2026-04-23 01:39 | 22.95956 | 65.18624 | 31849 ft | 487 kts | 270° |
| 2026-04-23 01:40 | 22.95923 | 65.11256 | 31848 ft | 488 kts | 270° |
| 2026-04-23 01:40 | 22.95886 | 65.03892 | 31851 ft | 488 kts | 270° |
| 2026-04-23 01:41 | 22.95848 | 64.96572 | 31849 ft | 487 kts | 270° |
| 2026-04-23 01:41 | 22.95804 | 64.89149 | 31850 ft | 488 kts | 270° |
| 2026-04-23 01:42 | 22.95982 | 64.81838 | 31848 ft | 487 kts | 274° |
| 2026-04-23 01:42 | 22.96685 | 64.74509 | 31849 ft | 487 kts | 277° |
| 2026-04-23 01:43 | 22.97468 | 64.67186 | 31850 ft | 487 kts | 277° |
| 2026-04-23 01:43 | 22.98249 | 64.59863 | 31847 ft | 487 kts | 277° |
| 2026-04-23 01:44 | 22.99023 | 64.52542 | 31849 ft | 488 kts | 276° |
| 2026-04-23 01:44 | 22.99793 | 64.45217 | 31843 ft | 488 kts | 276° |
| 2026-04-23 01:45 | 23.00559 | 64.37888 | 31845 ft | 488 kts | 276° |
| 2026-04-23 01:45 | 23.01321 | 64.30561 | 31844 ft | 488 kts | 276° |
| 2026-04-23 01:46 | 23.01952 | 64.24477 | 31844 ft | 488 kts | 276° |
| 2026-04-23 01:46 | 23.02709 | 64.17148 | 31842 ft | 487 kts | 276° |
| 2026-04-23 01:47 | 23.03462 | 64.09824 | 31843 ft | 487 kts | 276° |
| 2026-04-23 01:47 | 23.04212 | 64.02502 | 31840 ft | 487 kts | 276° |
| 2026-04-23 01:48 | 23.04960 | 63.95173 | 31840 ft | 487 kts | 276° |
| 2026-04-23 01:48 | 23.05661 | 63.87853 | 31841 ft | 486 kts | 274° |
| 2026-04-23 01:49 | 23.05896 | 63.80507 | 31840 ft | 486 kts | 271° |
| 2026-04-23 01:49 | 23.05977 | 63.73158 | 31843 ft | 486 kts | 271° |
| 2026-04-23 01:50 | 23.06052 | 63.65813 | 31841 ft | 485 kts | 271° |
| 2026-04-23 01:50 | 23.06128 | 63.58465 | 31842 ft | 485 kts | 271° |
| 2026-04-23 01:51 | 23.06201 | 63.51133 | 31844 ft | 485 kts | 271° |
| 2026-04-23 01:51 | 23.06272 | 63.43798 | 31845 ft | 485 kts | 271° |
| 2026-04-23 01:52 | 23.06339 | 63.36520 | 31846 ft | 484 kts | 271° |
| 2026-04-23 01:52 | 23.06404 | 63.29153 | 31846 ft | 484 kts | 271° |
| 2026-04-23 01:53 | 23.06464 | 63.21879 | 31843 ft | 484 kts | 270° |
| 2026-04-23 01:53 | 23.06522 | 63.14558 | 31842 ft | 484 kts | 270° |
| 2026-04-23 01:54 | 23.06576 | 63.07240 | 31843 ft | 484 kts | 270° |
| 2026-04-23 01:54 | 23.06627 | 62.99922 | 31842 ft | 483 kts | 270° |
| 2026-04-23 01:55 | 23.06675 | 62.92603 | 31840 ft | 484 kts | 270° |
| 2026-04-23 01:55 | 23.06719 | 62.85291 | 31842 ft | 484 kts | 270° |
| 2026-04-23 01:56 | 23.06760 | 62.77972 | 31843 ft | 484 kts | 270° |
| 2026-04-23 01:56 | 23.06797 | 62.70666 | 31841 ft | 483 kts | 270° |
| 2026-04-23 01:57 | 23.06831 | 62.63349 | 31839 ft | 483 kts | 270° |
| 2026-04-23 01:57 | 23.06862 | 62.56036 | 31840 ft | 483 kts | 270° |
| 2026-04-23 01:58 | 23.06890 | 62.48729 | 31843 ft | 483 kts | 270° |
| 2026-04-23 01:58 | 23.06914 | 62.41423 | 31843 ft | 483 kts | 270° |
| 2026-04-23 01:59 | 23.06934 | 62.34117 | 31837 ft | 483 kts | 270° |
| 2026-04-23 01:59 | 23.06951 | 62.26825 | 31837 ft | 482 kts | 270° |
| 2026-04-23 02:00 | 23.06964 | 62.19528 | 31840 ft | 482 kts | 270° |
| 2026-04-23 02:00 | 23.06974 | 62.12290 | 31841 ft | 482 kts | 270° |
| 2026-04-23 02:01 | 23.06982 | 62.05001 | 31840 ft | 481 kts | 270° |
| 2026-04-23 02:01 | 23.06986 | 61.97713 | 31839 ft | 481 kts | 270° |
| 2026-04-23 02:02 | 23.06987 | 61.90437 | 31838 ft | 481 kts | 270° |
| 2026-04-23 02:02 | 23.06986 | 61.83156 | 31835 ft | 481 kts | 270° |
| 2026-04-23 02:03 | 23.06981 | 61.75885 | 31838 ft | 481 kts | 270° |
| 2026-04-23 02:03 | 23.06972 | 61.68625 | 31834 ft | 480 kts | 270° |
| 2026-04-23 02:04 | 23.06962 | 61.61357 | 31832 ft | 480 kts | 270° |
| 2026-04-23 02:04 | 23.06947 | 61.54103 | 31829 ft | 479 kts | 270° |
| 2026-04-23 02:05 | 23.06635 | 61.46862 | 31831 ft | 480 kts | 265° |
| 2026-04-23 02:05 | 23.05776 | 61.39668 | 31827 ft | 480 kts | 263° |
| 2026-04-23 02:06 | 23.04829 | 61.32491 | 31826 ft | 480 kts | 263° |
| 2026-04-23 02:06 | 23.03877 | 61.25311 | 31824 ft | 479 kts | 263° |
| 2026-04-23 02:07 | 23.02924 | 61.18126 | 31823 ft | 480 kts | 263° |
| 2026-04-23 02:07 | 23.01970 | 61.10947 | 31821 ft | 480 kts | 263° |
| 2026-04-23 02:08 | 23.01019 | 61.03811 | 31820 ft | 480 kts | 263° |
| 2026-04-23 02:08 | 23.00059 | 60.96631 | 31819 ft | 480 kts | 263° |
| 2026-04-23 02:09 | 22.99091 | 60.89439 | 31818 ft | 481 kts | 263° |
| 2026-04-23 02:09 | 22.98118 | 60.82250 | 31817 ft | 481 kts | 263° |
| 2026-04-23 02:10 | 22.97143 | 60.75044 | 31816 ft | 482 kts | 263° |
| 2026-04-23 02:10 | 22.96167 | 60.67845 | 31811 ft | 482 kts | 263° |
| 2026-04-23 02:11 | 22.95185 | 60.60621 | 31811 ft | 483 kts | 263° |
| 2026-04-23 02:11 | 22.94201 | 60.53397 | 31809 ft | 483 kts | 263° |
| 2026-04-23 02:12 | 22.93212 | 60.46169 | 31807 ft | 484 kts | 263° |
| 2026-04-23 02:12 | 22.92219 | 60.38925 | 31805 ft | 485 kts | 263° |
| 2026-04-23 02:13 | 22.91223 | 60.31679 | 31803 ft | 485 kts | 264° |
| 2026-04-23 02:13 | 22.90222 | 60.24426 | 31802 ft | 486 kts | 263° |
| 2026-04-23 02:14 | 22.89206 | 60.17165 | 31802 ft | 486 kts | 263° |
| 2026-04-23 02:14 | 22.88183 | 60.09907 | 31796 ft | 486 kts | 263° |
| 2026-04-23 02:15 | 22.86647 | 59.99012 | 31800 ft | 487 kts | 263° |
| 2026-04-23 02:16 | 22.85620 | 59.91749 | 31797 ft | 487 kts | 263° |
| 2026-04-23 02:16 | 22.84593 | 59.84482 | 31791 ft | 487 kts | 263° |
| 2026-04-23 02:17 | 22.83579 | 59.77205 | 31794 ft | 488 kts | 263° |
| 2026-04-23 02:17 | 22.82563 | 59.69908 | 31789 ft | 489 kts | 263° |
| 2026-04-23 02:18 | 22.81540 | 59.62592 | 31787 ft | 489 kts | 263° |
| 2026-04-23 02:18 | 22.80516 | 59.55286 | 31795 ft | 489 kts | 263° |
| 2026-04-23 02:19 | 22.79490 | 59.47993 | 31797 ft | 489 kts | 263° |
| 2026-04-23 02:19 | 22.78461 | 59.40695 | 31807 ft | 489 kts | 263° |
| 2026-04-23 02:20 | 22.77424 | 59.33408 | 31820 ft | 488 kts | 263° |
| 2026-04-23 02:20 | 22.76385 | 59.26174 | 31832 ft | 488 kts | 263° |
| 2026-04-23 02:21 | 22.75333 | 59.18860 | 31843 ft | 486 kts | 263° |
| 2026-04-23 02:21 | 22.74297 | 59.11660 | 31857 ft | 486 kts | 263° |
| 2026-04-23 02:22 | 22.73253 | 59.04420 | 31868 ft | 485 kts | 263° |
| 2026-04-23 02:22 | 22.72207 | 58.97187 | 31882 ft | 485 kts | 263° |
| 2026-04-23 02:23 | 22.71158 | 58.89954 | 31891 ft | 487 kts | 263° |
| 2026-04-23 02:23 | 22.70103 | 58.82700 | 31888 ft | 487 kts | 263° |
| 2026-04-23 02:24 | 22.69044 | 58.75442 | 31892 ft | 486 kts | 263° |
| 2026-04-23 02:24 | 22.68226 | 58.68176 | 31889 ft | 484 kts | 269° |
| 2026-04-23 02:25 | 22.68191 | 58.60900 | 31889 ft | 482 kts | 275° |
| 2026-04-23 02:25 | 22.68962 | 58.53706 | 31893 ft | 479 kts | 282° |
| 2026-04-23 02:26 | 22.70497 | 58.46690 | 31894 ft | 478 kts | 287° |
| 2026-04-23 02:26 | 22.72312 | 58.39752 | 31900 ft | 477 kts | 287° |
| 2026-04-23 02:27 | 22.74131 | 58.32832 | 31900 ft | 476 kts | 287° |
| 2026-04-23 02:27 | 22.75939 | 58.25920 | 31903 ft | 476 kts | 287° |
| 2026-04-23 02:28 | 22.77742 | 58.19006 | 31901 ft | 475 kts | 287° |
| 2026-04-23 02:28 | 22.79538 | 58.12103 | 31902 ft | 475 kts | 287° |
| 2026-04-23 02:29 | 22.81330 | 58.05205 | 31904 ft | 474 kts | 287° |
| 2026-04-23 02:29 | 22.83120 | 57.98297 | 31905 ft | 474 kts | 287° |
| 2026-04-23 02:30 | 22.84903 | 57.91409 | 31910 ft | 473 kts | 287° |
| 2026-04-23 02:30 | 22.86678 | 57.84541 | 31911 ft | 472 kts | 287° |
| 2026-04-23 02:31 | 22.88447 | 57.77683 | 31914 ft | 471 kts | 287° |
| 2026-04-23 02:31 | 22.90187 | 57.70793 | 31921 ft | 471 kts | 287° |
| 2026-04-23 02:32 | 22.91893 | 57.63918 | 31926 ft | 471 kts | 287° |
| 2026-04-23 02:32 | 22.93601 | 57.57051 | 31935 ft | 471 kts | 287° |
| 2026-04-23 02:33 | 22.95020 | 57.51343 | 31943 ft | 470 kts | 287° |
| 2026-04-23 02:33 | 22.96985 | 57.43438 | 31949 ft | 472 kts | 287° |
| 2026-04-23 02:34 | 22.98635 | 57.36500 | 31944 ft | 472 kts | 284° |
| 2026-04-23 02:34 | 22.99702 | 57.30645 | 31940 ft | 470 kts | 286° |
| 2026-04-23 02:35 | 23.02044 | 57.24044 | 31947 ft | 468 kts | 294° |
| 2026-04-23 02:35 | 23.04577 | 57.17570 | 31946 ft | 468 kts | 294° |
| 2026-04-23 02:36 | 23.07095 | 57.11050 | 31949 ft | 468 kts | 293° |
| 2026-04-23 02:36 | 23.09591 | 57.04507 | 31943 ft | 468 kts | 293° |
| 2026-04-23 02:37 | 23.12073 | 56.97963 | 31937 ft | 468 kts | 293° |
| 2026-04-23 02:37 | 23.14547 | 56.91420 | 31931 ft | 468 kts | 293° |
| 2026-04-23 02:38 | 23.17021 | 56.84874 | 31929 ft | 467 kts | 293° |
| 2026-04-23 02:38 | 23.19493 | 56.78329 | 31921 ft | 467 kts | 293° |
| 2026-04-23 02:39 | 23.21960 | 56.71786 | 31913 ft | 467 kts | 293° |
| 2026-04-23 02:39 | 23.24426 | 56.65238 | 31902 ft | 467 kts | 293° |
| 2026-04-23 02:40 | 23.26886 | 56.58695 | 31902 ft | 467 kts | 293° |
| 2026-04-23 02:40 | 23.29343 | 56.52154 | 31897 ft | 467 kts | 293° |
| 2026-04-23 02:41 | 23.31801 | 56.45600 | 31892 ft | 467 kts | 292° |
| 2026-04-23 02:41 | 23.34252 | 56.39053 | 31887 ft | 466 kts | 292° |
| 2026-04-23 02:42 | 23.36700 | 56.32505 | 31882 ft | 466 kts | 292° |
| 2026-04-23 02:42 | 23.39146 | 56.25956 | 31876 ft | 466 kts | 292° |
| 2026-04-23 02:43 | 23.41590 | 56.19403 | 31877 ft | 466 kts | 292° |
| 2026-04-23 02:43 | 23.44028 | 56.12858 | 31868 ft | 466 kts | 292° |
| 2026-04-23 02:44 | 23.46444 | 56.06364 | 31434 ft | 457 kts | 292° |
| 2026-04-23 02:44 | 23.47642 | 56.03148 | 30637 ft | 459 kts | 292° |
| 2026-04-23 02:44 | 23.48845 | 55.99917 | 29891 ft | 460 kts | 291° |
| 2026-04-23 02:44 | 23.50049 | 55.96678 | 29094 ft | 461 kts | 291° |
| 2026-04-23 02:45 | 23.51246 | 55.93446 | 28421 ft | 458 kts | 291° |
| 2026-04-23 02:45 | 23.52435 | 55.90231 | 27811 ft | 455 kts | 291° |
| 2026-04-23 02:45 | 23.53646 | 55.87063 | 27196 ft | 452 kts | 294° |
| 2026-04-23 02:45 | 23.55214 | 55.84081 | 26404 ft | 455 kts | 303° |
| 2026-04-23 02:46 | 23.57185 | 55.81380 | 25701 ft | 456 kts | 311° |
| 2026-04-23 02:46 | 23.59377 | 55.78949 | 25149 ft | 454 kts | 313° |
| 2026-04-23 02:46 | 23.61625 | 55.76544 | 24564 ft | 451 kts | 314° |
| 2026-04-23 02:46 | 23.63870 | 55.74156 | 23976 ft | 449 kts | 313° |
| 2026-04-23 02:47 | 23.66099 | 55.71778 | 23409 ft | 446 kts | 313° |
| 2026-04-23 02:47 | 23.68308 | 55.69407 | 22760 ft | 444 kts | 313° |
| 2026-04-23 02:47 | 23.70499 | 55.67047 | 22154 ft | 440 kts | 313° |
| 2026-04-23 02:47 | 23.72666 | 55.64711 | 21624 ft | 435 kts | 314° |
| 2026-04-23 02:48 | 23.74805 | 55.62404 | 20907 ft | 427 kts | 314° |
| 2026-04-23 02:48 | 23.76886 | 55.60157 | 20355 ft | 413 kts | 314° |
| 2026-04-23 02:48 | 23.78908 | 55.57973 | 19671 ft | 405 kts | 314° |
| 2026-04-23 02:48 | 23.80889 | 55.55825 | 18981 ft | 397 kts | 313° |
| 2026-04-23 02:49 | 23.82658 | 55.53541 | 18222 ft | 392 kts | 305° |
| 2026-04-23 02:49 | 23.84101 | 55.51028 | 17341 ft | 388 kts | 297° |
| 2026-04-23 02:49 | 23.85261 | 55.48381 | 16489 ft | 384 kts | 293° |
| 2026-04-23 02:49 | 23.86346 | 55.45728 | 15687 ft | 380 kts | 293° |
| 2026-04-23 02:50 | 23.87413 | 55.43101 | 15042 ft | 376 kts | 293° |
| 2026-04-23 02:50 | 23.88467 | 55.40524 | 14464 ft | 364 kts | 293° |
| 2026-04-23 02:50 | 23.89491 | 55.38035 | 13909 ft | 353 kts | 293° |
| 2026-04-23 02:50 | 23.90484 | 55.35630 | 13321 ft | 342 kts | 293° |
| 2026-04-23 02:51 | 23.91450 | 55.33287 | 12746 ft | 332 kts | 293° |
| 2026-04-23 02:51 | 23.92394 | 55.31032 | 12308 ft | 320 kts | 295° |
| 2026-04-23 02:51 | 23.93394 | 55.28872 | 11885 ft | 315 kts | 296° |
| 2026-04-23 02:51 | 23.94395 | 55.26757 | 11447 ft | 311 kts | 296° |
| 2026-04-23 02:52 | 23.95385 | 55.24670 | 11042 ft | 306 kts | 296° |
| 2026-04-23 02:52 | 23.96359 | 55.22616 | 10640 ft | 302 kts | 296° |
| 2026-04-23 02:52 | 23.97317 | 55.20590 | 10236 ft | 297 kts | 296° |
| 2026-04-23 02:52 | 23.98259 | 55.18596 | 9833 ft | 293 kts | 296° |
| 2026-04-23 02:53 | 23.99188 | 55.16626 | 9424 ft | 289 kts | 296° |
| 2026-04-23 02:53 | 24.00108 | 55.14675 | 9009 ft | 286 kts | 296° |
| 2026-04-23 02:53 | 24.01017 | 55.12744 | 8562 ft | 285 kts | 296° |
| 2026-04-23 02:53 | 24.01912 | 55.10844 | 8130 ft | 276 kts | 296° |
| 2026-04-23 02:54 | 24.02777 | 55.09011 | 7767 ft | 266 kts | 296° |
| 2026-04-23 02:54 | 24.03610 | 55.07242 | 7397 ft | 258 kts | 296° |
| 2026-04-23 02:54 | 24.04431 | 55.05498 | 7090 ft | 257 kts | 296° |
| 2026-04-23 02:54 | 24.05294 | 55.03769 | 7027 ft | 259 kts | 300° |
| 2026-04-23 02:55 | 24.06298 | 55.02151 | 7042 ft | 261 kts | 305° |
| 2026-04-23 02:55 | 24.07288 | 55.00748 | 7037 ft | 261 kts | 306° |
| 2026-04-23 02:55 | 24.08385 | 54.99227 | 7019 ft | 252 kts | 307° |
| 2026-04-23 02:55 | 24.09536 | 54.97860 | 6983 ft | 242 kts | 327° |
| 2026-04-23 02:56 | 24.11143 | 54.97334 | 7001 ft | 247 kts | 2° |
| 2026-04-23 02:56 | 24.12769 | 54.97899 | 6978 ft | 250 kts | 34° |
| 2026-04-23 02:56 | 24.14166 | 54.99065 | 6607 ft | 256 kts | 39° |
| 2026-04-23 02:56 | 24.15575 | 55.00292 | 6163 ft | 261 kts | 31° |
| 2026-04-23 02:57 | 24.17277 | 55.00773 | 5995 ft | 249 kts | 350° |
| 2026-04-23 02:57 | 24.18789 | 55.00033 | 6007 ft | 238 kts | 311° |
| 2026-04-23 02:57 | 24.19791 | 54.98601 | 6024 ft | 237 kts | 301° |
| 2026-04-23 02:57 | 24.20720 | 54.97083 | 5604 ft | 245 kts | 302° |
| 2026-04-23 02:58 | 24.21723 | 54.95524 | 5145 ft | 252 kts | 303° |
| 2026-04-23 02:58 | 24.22758 | 54.94002 | 5028 ft | 242 kts | 304° |
| 2026-04-23 02:58 | 24.23761 | 54.92570 | 5017 ft | 235 kts | 304° |
| 2026-04-23 02:58 | 24.24761 | 54.91158 | 4612 ft | 232 kts | 304° |
| 2026-04-23 02:59 | 24.25754 | 54.89765 | 4152 ft | 231 kts | 305° |
| 2026-04-23 02:59 | 24.26739 | 54.88383 | 4027 ft | 230 kts | 305° |
| 2026-04-23 02:59 | 24.27733 | 54.86990 | 4027 ft | 232 kts | 305° |
| 2026-04-23 02:59 | 24.28745 | 54.85609 | 4017 ft | 232 kts | 306° |
| 2026-04-23 03:00 | 24.29778 | 54.84237 | 3872 ft | 233 kts | 306° |
| 2026-04-23 03:00 | 24.30794 | 54.82854 | 3585 ft | 232 kts | 305° |
| 2026-04-23 03:00 | 24.31783 | 54.81473 | 3319 ft | 228 kts | 305° |
| 2026-04-23 03:00 | 24.32754 | 54.80098 | 3001 ft | 227 kts | 304° |
| 2026-04-23 03:01 | 24.33712 | 54.78731 | 2685 ft | 225 kts | 305° |
| 2026-04-23 03:01 | 24.34664 | 54.77374 | 2397 ft | 223 kts | 306° |
| 2026-04-23 03:01 | 24.35600 | 54.76042 | 2094 ft | 217 kts | 306° |
| 2026-04-23 03:01 | 24.36512 | 54.74747 | 1827 ft | 211 kts | 307° |
| 2026-04-23 03:02 | 24.37383 | 54.73510 | 1593 ft | 203 kts | 307° |
| 2026-04-23 03:02 | 24.38221 | 54.72321 | 1323 ft | 190 kts | 308° |
| 2026-04-23 03:02 | 24.39004 | 54.71213 | 1079 ft | 177 kts | 308° |
| 2026-04-23 03:02 | 24.39732 | 54.70180 | 868 ft | 164 kts | 308° |
| 2026-04-23 03:03 | 24.40405 | 54.69224 | 664 ft | 154 kts | 308° |
| 2026-04-23 03:03 | 24.41057 | 54.68299 | 477 ft | 153 kts | 308° |
| 2026-04-23 03:03 | 24.41706 | 54.67374 | 304 ft | 152 kts | 308° |
| 2026-04-23 03:03 | 24.42358 | 54.66455 | 149 ft | 152 kts | 308° |
| 2026-04-23 03:04 | 24.42961 | 54.65605 | 101 ft | 113 kts | 306° |
| 2026-04-23 03:04 | 24.43308 | 54.65111 | 103 ft | 49 kts | 308° |
| 2026-04-23 03:04 | 24.43393 | 54.64905 | 100 ft | 26 kts | 281° |
| 2026-04-23 03:04 | 24.43419 | 54.64710 | 103 ft | 10 kts | 278° |
| 2026-04-23 03:05 | 24.43419 | 54.64708 | 103 ft | 0 kts | 278° |
| 2026-04-23 03:05 | 24.43420 | 54.64702 | 102 ft | 2 kts | 278° |
| 2026-04-23 03:05 | 24.43423 | 54.64674 | 102 ft | 5 kts | 278° |
| 2026-04-23 03:05 | 24.43430 | 54.64622 | 100 ft | 8 kts | 278° |
| 2026-04-23 03:06 | 24.43439 | 54.64557 | 100 ft | 7 kts | 278° |
| 2026-04-23 03:06 | 24.43445 | 54.64492 | 103 ft | 10 kts | 269° |
| 2026-04-23 03:06 | 24.43416 | 54.64412 | 102 ft | 13 kts | 226° |
| 2026-04-23 03:06 | 24.43338 | 54.64340 | 103 ft | 16 kts | 217° |
| 2026-04-23 03:07 | 24.43255 | 54.64306 | 102 ft | 12 kts | 159° |
| 2026-04-23 03:07 | 24.43193 | 54.64379 | 102 ft | 14 kts | 126° |
| 2026-04-23 03:07 | 24.43129 | 54.64472 | 102 ft | 16 kts | 129° |
| 2026-04-23 03:07 | 24.43072 | 54.64550 | 102 ft | 9 kts | 128° |
| 2026-04-23 03:08 | 24.43073 | 54.64618 | 103 ft | 12 kts | 57° |
| 2026-04-23 03:08 | 24.43080 | 54.64694 | 104 ft | 11 kts | 122° |
| 2026-04-23 03:08 | 24.43027 | 54.64773 | 102 ft | 14 kts | 129° |
| 2026-04-23 03:08 | 24.42984 | 54.64829 | 102 ft | 6 kts | 129° |
| 2026-04-23 03:09 | 24.42948 | 54.64878 | 103 ft | 10 kts | 128° |
| 2026-04-23 03:09 | 24.42900 | 54.64948 | 104 ft | 12 kts | 127° |
| 2026-04-23 03:09 | 24.42858 | 54.65001 | 102 ft | 8 kts | 155° |
| 2026-04-23 03:09 | 24.42796 | 54.64979 | 102 ft | 12 kts | 215° |
| 2026-04-23 03:10 | 24.42753 | 54.64946 | 104 ft | 0 kts | 215° |
| 2026-04-23 03:10 | 24.42740 | 54.64936 | 103 ft | 8 kts | 215° |
| 2026-04-23 03:10 | 24.42715 | 54.64915 | 101 ft | 3 kts | 233° |
| 2026-04-23 03:10 | 24.42710 | 54.64883 | 102 ft | 6 kts | 279° |
| 2026-04-23 03:11 | 24.42726 | 54.64841 | 104 ft | 5 kts | 297° |
| 2026-04-23 03:11 | 24.42735 | 54.64822 | 102 ft | 1 kts | 297° |
| 2026-04-23 03:11 | 24.42741 | 54.64810 | 102 ft | 3 kts | 297° |
| 2026-04-23 03:11 | 24.42750 | 54.64789 | 98 ft | 3 kts | 296° |
| 2026-04-23 03:12 | 24.42752 | 54.64785 | 99 ft | 0 kts | 296° |
| 2026-04-23 03:14 | 24.42752 | 54.64786 | 99 ft | 0 kts | 296° |